Time;durP1;ratioP1;P1;durP2;ratioP2;P2;SDS_P1;SDS_P2;PMS_P1;PMS_P2;Temp;Humidity;BMP_temperature;BMP_pressure;BME280_temperature;BME280_humidity;BME280_pressure;Samples;Min_cycle;Max_cycle;Signal;HPM_P1;HPM_P2
2021/12/10 00:00:28;;;;;;;11.27;3.97;;;5.10;99.90;;;;;;5032966;28;20303;-75
2021/12/10 00:03:19;;;;;;;9.85;4.68;;;5.10;99.90;;;;;;5031163;28;20229;-75
2021/12/10 00:06:10;;;;;;;12.13;3.80;;;5.10;99.90;;;;;;5039001;28;20702;-75
2021/12/10 00:09:00;;;;;;;6.35;3.35;;;5.10;99.90;;;;;;5033146;28;20305;-75
2021/12/10 00:11:49;;;;;;;12.27;4.93;;;5.10;99.90;;;;;;5037078;28;20313;-75
2021/12/10 00:14:35;;;;;;;5.15;3.25;;;5.10;99.90;;;;;;5037092;28;20202;-75
2021/12/10 00:17:22;;;;;;;13.85;5.18;;;5.10;99.90;;;;;;5028066;28;20205;-75
2021/12/10 00:20:09;;;;;;;9.55;4.15;;;5.00;99.90;;;;;;5037222;28;20241;-75
2021/12/10 00:23:04;;;;;;;7.90;4.22;;;4.90;99.90;;;;;;5029943;28;20280;-75
2021/12/10 00:25:52;;;;;;;17.05;4.20;;;5.00;99.90;;;;;;5034135;28;20205;-75
2021/12/10 00:28:40;;;;;;;9.02;4.35;;;5.00;99.90;;;;;;5034853;28;20216;-75
2021/12/10 00:31:42;;;;;;;14.30;4.45;;;5.10;99.90;;;;;;5031707;28;20210;-75
2021/12/10 00:34:31;;;;;;;14.75;4.50;;;5.00;99.90;;;;;;5032317;28;20200;-75
2021/12/10 00:37:20;;;;;;;5.82;3.15;;;5.10;99.90;;;;;;5033557;28;20673;-75
2021/12/10 00:40:10;;;;;;;12.82;4.20;;;5.10;99.90;;;;;;5033688;28;20217;-75
2021/12/10 00:42:57;;;;;;;9.73;3.33;;;5.10;99.90;;;;;;5033249;28;20707;-75
2021/12/10 00:45:42;;;;;;;12.45;3.55;;;5.00;99.90;;;;;;5039332;28;20427;-75
2021/12/10 00:48:28;;;;;;;11.70;4.32;;;5.10;99.90;;;;;;5032538;28;20205;-75
2021/12/10 00:51:15;;;;;;;17.65;4.10;;;5.10;99.90;;;;;;5028589;28;20209;-75
2021/12/10 00:54:01;;;;;;;8.00;3.13;;;5.20;99.90;;;;;;5030598;28;20209;-75
2021/12/10 00:56:50;;;;;;;13.65;3.95;;;5.20;99.90;;;;;;5035764;28;20268;-75
2021/12/10 00:59:37;;;;;;;15.68;4.43;;;5.20;99.90;;;;;;5033961;28;20240;-75
2021/12/10 01:02:25;;;;;;;10.65;3.20;;;5.20;99.90;;;;;;5031151;28;20229;-75
2021/12/10 01:05:12;;;;;;;8.85;4.20;;;5.10;99.90;;;;;;5027467;28;20687;-75
2021/12/10 01:07:59;;;;;;;13.82;4.68;;;5.20;99.90;;;;;;5035766;28;20339;-75
2021/12/10 01:10:48;;;;;;;11.60;4.22;;;5.20;99.90;;;;;;5036670;28;20213;-75
2021/12/10 01:13:37;;;;;;;10.65;4.05;;;5.10;99.90;;;;;;5031890;28;20202;-75
2021/12/10 01:25:51;;;;;;;9.93;3.40;;;5.20;99.90;;;;;;5031733;28;20365;-75
2021/12/10 01:28:42;;;;;;;8.55;3.47;;;5.20;99.90;;;;;;5031419;28;20284;-75
2021/12/10 01:31:27;;;;;;;7.13;3.40;;;5.20;99.90;;;;;;5025631;28;20202;-75
2021/12/10 01:34:14;;;;;;;6.95;3.40;;;5.10;99.90;;;;;;5034991;28;20608;-75
2021/12/10 01:37:01;;;;;;;8.15;3.88;;;5.10;99.90;;;;;;5030440;28;20264;-75
2021/12/10 01:39:47;;;;;;;14.25;5.07;;;5.00;99.90;;;;;;5033046;28;20299;-75
2021/12/10 01:42:40;;;;;;;8.90;3.10;;;5.00;99.90;;;;;;5033218;28;20226;-75
2021/12/10 01:45:33;;;;;;;7.63;3.67;;;4.90;99.90;;;;;;5030130;28;20679;-75
2021/12/10 01:48:25;;;;;;;16.33;3.95;;;4.80;99.90;;;;;;5030945;28;20209;-75
2021/12/10 01:51:14;;;;;;;7.80;3.38;;;4.70;99.90;;;;;;5032325;28;20208;-77
2021/12/10 01:54:07;;;;;;;7.57;3.50;;;4.80;99.90;;;;;;5036884;28;20320;-76
2021/12/10 01:56:57;;;;;;;9.18;3.33;;;4.70;99.90;;;;;;5029504;28;20531;-76
2021/12/10 01:59:44;;;;;;;12.60;3.67;;;4.60;99.90;;;;;;5031513;28;20357;-77
2021/12/10 02:02:35;;;;;;;8.45;3.35;;;4.60;99.90;;;;;;5031602;28;20224;-76
2021/12/10 02:05:22;;;;;;;9.57;3.33;;;4.60;99.90;;;;;;5030365;28;20201;-77
2021/12/10 02:08:08;;;;;;;6.60;3.28;;;4.50;99.90;;;;;;5031709;28;20224;-77
2021/12/10 02:10:53;;;;;;;16.52;3.03;;;4.40;99.90;;;;;;5029177;28;20201;-77
2021/12/10 02:13:40;;;;;;;20.23;3.50;;;4.40;99.90;;;;;;5035124;28;20298;-77
2021/12/10 02:16:26;;;;;;;9.45;3.50;;;4.50;99.90;;;;;;5029869;28;20209;-77
2021/12/10 02:19:14;;;;;;;6.10;2.50;;;4.40;99.90;;;;;;5029955;28;20221;-77
2021/12/10 02:22:01;;;;;;;6.78;4.10;;;4.30;99.90;;;;;;5030568;28;20300;-77
2021/12/10 02:24:47;;;;;;;8.85;3.40;;;4.20;99.90;;;;;;5029111;28;20205;-76
2021/12/10 02:27:33;;;;;;;7.47;3.88;;;4.10;99.90;;;;;;5031360;28;20212;-76
2021/12/10 02:30:21;;;;;;;8.77;3.75;;;4.10;99.90;;;;;;5030930;28;20731;-77
2021/12/10 02:33:08;;;;;;;9.15;4.07;;;4.10;99.90;;;;;;5028834;28;20276;-75
2021/12/10 02:35:54;;;;;;;7.68;3.33;;;4.10;99.90;;;;;;5031935;28;20343;-77
2021/12/10 02:38:42;;;;;;;4.97;3.15;;;4.10;99.90;;;;;;5031011;28;20236;-75
2021/12/10 02:41:31;;;;;;;9.35;2.72;;;3.90;99.90;;;;;;5028581;28;20214;-77
2021/12/10 02:44:21;;;;;;;13.18;3.88;;;4.00;99.90;;;;;;5027294;28;20714;-77
2021/12/10 02:47:06;;;;;;;9.70;3.25;;;4.00;99.90;;;;;;5030829;28;20205;-77
2021/12/10 02:49:52;;;;;;;9.43;2.90;;;3.90;99.90;;;;;;5034150;28;20309;-76
2021/12/10 02:52:38;;;;;;;13.93;3.50;;;3.80;99.90;;;;;;5028662;28;20201;-76
2021/12/10 02:55:25;;;;;;;6.85;3.80;;;3.70;99.90;;;;;;5030327;28;20291;-77
2021/12/10 02:58:14;;;;;;;7.95;3.40;;;3.60;99.90;;;;;;5030932;28;20205;-77
2021/12/10 03:01:04;;;;;;;7.57;3.58;;;3.60;99.90;;;;;;5037561;28;20189;-77
2021/12/10 03:03:50;;;;;;;12.07;3.67;;;3.50;99.90;;;;;;5028996;28;20291;-75
2021/12/10 03:06:43;;;;;;;9.25;2.92;;;3.40;99.90;;;;;;5028932;28;20679;-77
2021/12/10 03:09:29;;;;;;;7.63;3.78;;;3.40;99.90;;;;;;5027125;28;20738;-76
2021/12/10 03:12:18;;;;;;;7.68;3.03;;;3.30;99.90;;;;;;5037364;28;20224;-77
2021/12/10 03:15:06;;;;;;;8.55;3.08;;;3.30;99.90;;;;;;5026825;28;20209;-77
2021/12/10 03:17:53;;;;;;;5.18;3.15;;;3.40;99.90;;;;;;5030849;28;20308;-77
2021/12/10 03:20:39;;;;;;;4.95;3.35;;;3.30;99.90;;;;;;5026680;28;20250;-76
2021/12/10 03:23:25;;;;;;;7.88;3.33;;;3.30;99.90;;;;;;5034304;28;20366;-76
2021/12/10 03:26:12;;;;;;;9.10;2.83;;;3.30;99.90;;;;;;5035477;28;20224;-76
2021/12/10 03:28:59;;;;;;;8.45;3.00;;;3.30;99.90;;;;;;5029428;28;20217;-77
2021/12/10 03:31:45;;;;;;;12.23;3.70;;;3.30;99.90;;;;;;5038568;28;20196;-77
2021/12/10 03:34:31;;;;;;;17.63;3.28;;;3.20;99.90;;;;;;5033022;28;20201;-76
2021/12/10 03:37:18;;;;;;;6.68;2.85;;;3.40;99.90;;;;;;5042342;28;20339;-77
2021/12/10 03:40:06;;;;;;;5.10;2.65;;;3.20;99.90;;;;;;5033427;28;20222;-77
2021/12/10 03:42:58;;;;;;;7.75;3.03;;;3.10;99.90;;;;;;5035725;28;20232;-74
2021/12/10 03:45:49;;;;;;;8.40;2.28;;;3.10;99.90;;;;;;5032251;28;20686;-77
2021/12/10 03:48:40;;;;;;;11.48;3.20;;;3.10;99.90;;;;;;5035051;28;20228;-76
2021/12/10 03:51:26;;;;;;;5.03;3.05;;;3.00;99.90;;;;;;5041711;28;20240;-76
2021/12/10 03:54:12;;;;;;;6.90;3.03;;;3.00;99.90;;;;;;5034237;28;20216;-76
2021/12/10 03:56:58;;;;;;;13.05;3.70;;;3.00;99.90;;;;;;5029611;28;20332;-76
2021/12/10 03:59:43;;;;;;;7.80;3.55;;;3.00;99.90;;;;;;5034111;28;20296;-77
2021/12/10 04:02:30;;;;;;;10.05;3.75;;;2.90;99.90;;;;;;5030893;28;20229;-77
2021/12/10 04:05:17;;;;;;;6.35;2.92;;;2.80;99.90;;;;;;5036314;28;20208;-76
2021/12/10 04:08:02;;;;;;;7.60;3.15;;;2.80;99.90;;;;;;5032741;28;20572;-76
2021/12/10 04:10:49;;;;;;;6.88;3.50;;;2.80;99.90;;;;;;5036762;28;20420;-75
2021/12/10 04:13:36;;;;;;;7.40;3.47;;;2.70;99.90;;;;;;5032461;28;20201;-77
2021/12/10 04:16:25;;;;;;;9.68;3.28;;;2.70;99.90;;;;;;5029785;28;20693;-75
2021/12/10 04:19:14;;;;;;;12.90;3.33;;;2.60;99.90;;;;;;5036102;28;20229;-76
2021/12/10 04:22:01;;;;;;;8.35;2.92;;;2.70;99.90;;;;;;5039194;28;20198;-76
2021/12/10 04:24:47;;;;;;;8.35;3.08;;;2.70;99.90;;;;;;5035028;28;20586;-77
2021/12/10 04:27:33;;;;;;;7.55;3.65;;;2.70;99.90;;;;;;5035460;28;20576;-76
2021/12/10 04:30:19;;;;;;;5.45;3.30;;;2.70;99.90;;;;;;5037076;28;20245;-76
2021/12/10 04:33:05;;;;;;;14.70;5.00;;;2.70;99.90;;;;;;5032572;28;20217;-77
2021/12/10 04:35:54;;;;;;;9.68;3.60;;;2.70;99.90;;;;;;5036928;28;20204;-77
2021/12/10 04:38:41;;;;;;;8.40;3.25;;;2.60;99.90;;;;;;5035121;28;20652;-77
2021/12/10 04:41:26;;;;;;;11.30;3.95;;;2.60;99.90;;;;;;5039813;28;20209;-76
2021/12/10 04:44:13;;;;;;;7.25;3.40;;;2.60;99.90;;;;;;5033320;28;20241;-76
2021/12/10 04:46:58;;;;;;;7.28;3.38;;;2.60;99.90;;;;;;5029248;28;20637;-77
2021/12/10 04:49:44;;;;;;;4.07;2.75;;;2.70;99.90;;;;;;5039967;28;20595;-76
2021/12/10 04:52:31;;;;;;;4.70;3.00;;;2.70;99.90;;;;;;5029913;28;20209;-76
2021/12/10 04:55:18;;;;;;;8.80;3.42;;;2.70;99.90;;;;;;5042984;28;20201;-76
2021/12/10 04:58:05;;;;;;;5.93;2.67;;;2.80;99.90;;;;;;5037131;28;20313;-76
2021/12/10 05:00:51;;;;;;;7.20;3.22;;;2.70;99.90;;;;;;5035812;28;20615;-77
2021/12/10 05:03:37;;;;;;;6.60;3.00;;;2.70;99.90;;;;;;5030492;28;20598;-77
2021/12/10 05:06:23;;;;;;;3.95;2.45;;;2.60;99.90;;;;;;5029608;28;20198;-77
2021/12/10 05:09:13;;;;;;;10.43;3.50;;;2.50;99.90;;;;;;5030888;28;20237;-77
2021/12/10 05:12:01;;;;;;;9.55;3.15;;;2.50;99.90;;;;;;5031768;28;20778;-77
2021/12/10 05:14:46;;;;;;;11.50;2.67;;;2.50;99.90;;;;;;5033405;28;20567;-76
2021/12/10 05:17:34;;;;;;;7.10;3.63;;;2.60;99.90;;;;;;5043185;28;20231;-76
2021/12/10 05:20:23;;;;;;;12.85;4.35;;;2.50;99.90;;;;;;5049131;28;20229;-77
2021/12/10 05:23:09;;;;;;;6.15;3.30;;;2.40;99.90;;;;;;5034226;28;20228;-77
2021/12/10 05:25:56;;;;;;;7.25;3.42;;;2.40;99.90;;;;;;5033687;28;20225;-76
2021/12/10 05:28:42;;;;;;;4.38;3.00;;;2.40;99.90;;;;;;5033625;28;20256;-77
2021/12/10 05:31:28;;;;;;;6.20;2.80;;;2.40;99.90;;;;;;5029380;28;20201;-76
2021/12/10 05:34:15;;;;;;;9.18;3.22;;;2.30;99.90;;;;;;5035469;28;20267;-77
2021/12/10 05:37:01;;;;;;;5.30;3.65;;;2.20;99.90;;;;;;5029994;28;20201;-76
2021/12/10 05:39:46;;;;;;;4.72;3.25;;;2.20;99.90;;;;;;5045283;28;20275;-77
2021/12/10 05:42:34;;;;;;;8.48;3.55;;;2.20;99.90;;;;;;5029128;28;20280;-77
2021/12/10 05:45:21;;;;;;;8.00;3.83;;;2.10;99.90;;;;;;5035893;28;20225;-76
2021/12/10 05:48:08;;;;;;;8.23;3.67;;;2.10;99.90;;;;;;5030398;28;20198;-77
2021/12/10 05:50:54;;;;;;;16.52;3.92;;;2.20;99.90;;;;;;5030556;28;20571;-75
2021/12/10 05:53:40;;;;;;;14.73;3.70;;;2.20;99.90;;;;;;5033323;28;20206;-77
2021/12/10 05:56:26;;;;;;;7.90;3.10;;;2.30;99.90;;;;;;5028825;28;20571;-76
2021/12/10 05:59:13;;;;;;;8.00;3.50;;;2.40;99.90;;;;;;5030976;28;20328;-76
2021/12/10 06:01:59;;;;;;;7.45;2.88;;;2.40;99.90;;;;;;5029730;28;20681;-76
2021/12/10 06:04:45;;;;;;;4.45;3.08;;;2.40;99.90;;;;;;5032831;28;20233;-76
2021/12/10 06:07:31;;;;;;;12.57;3.60;;;2.30;99.90;;;;;;5031485;28;20272;-77
2021/12/10 06:10:20;;;;;;;7.43;3.75;;;2.20;99.90;;;;;;5031971;28;20234;-76
2021/12/10 06:13:07;;;;;;;13.27;4.00;;;2.20;99.90;;;;;;5033108;28;20292;-77
2021/12/10 06:15:55;;;;;;;6.82;3.45;;;2.20;99.90;;;;;;5028392;28;20210;-76
2021/12/10 06:18:41;;;;;;;7.72;3.78;;;2.20;99.90;;;;;;5032837;28;20221;-77
2021/12/10 06:21:27;;;;;;;5.18;3.35;;;2.20;99.90;;;;;;5032859;28;20221;-77
2021/12/10 06:24:13;;;;;;;7.03;4.10;;;2.20;99.90;;;;;;5038094;28;20701;-76
2021/12/10 06:26:58;;;;;;;7.40;3.83;;;2.10;99.90;;;;;;5031475;28;20210;-76
2021/12/10 06:29:44;;;;;;;7.40;3.42;;;2.10;99.90;;;;;;5031766;28;20229;-77
2021/12/10 06:32:31;;;;;;;6.35;3.03;;;2.10;99.90;;;;;;5028471;28;20570;-77
2021/12/10 06:35:18;;;;;;;6.15;3.40;;;2.00;99.90;;;;;;5030678;28;20210;-76
2021/12/10 06:38:05;;;;;;;9.10;3.67;;;2.00;99.90;;;;;;5018510;28;20201;-76
2021/12/10 06:40:52;;;;;;;5.25;3.45;;;2.10;99.90;;;;;;5031292;28;20579;-77
2021/12/10 06:43:38;;;;;;;4.07;2.83;;;2.00;99.90;;;;;;5030323;28;20345;-76
2021/12/10 06:46:24;;;;;;;8.05;3.15;;;2.10;99.90;;;;;;5030117;28;20205;-76
2021/12/10 06:49:11;;;;;;;14.30;4.53;;;2.00;99.90;;;;;;5029383;28;20263;-76
2021/12/10 06:51:57;;;;;;;8.25;3.60;;;1.90;99.90;;;;;;5023489;28;20687;-76
2021/12/10 06:54:43;;;;;;;8.43;3.45;;;1.90;99.90;;;;;;5034479;28;20201;-77
2021/12/10 06:57:30;;;;;;;4.57;3.25;;;1.90;99.90;;;;;;5030462;28;20237;-77
2021/12/10 07:00:21;;;;;;;5.57;3.33;;;2.00;99.90;;;;;;5029503;28;20311;-77
2021/12/10 07:03:07;;;;;;;9.52;3.55;;;1.90;99.90;;;;;;5025021;28;20202;-77
2021/12/10 07:05:57;;;;;;;8.30;3.70;;;2.00;99.90;;;;;;5040230;28;20205;-75
2021/12/10 07:08:45;;;;;;;10.70;3.03;;;2.00;99.90;;;;;;5032107;28;20221;-76
2021/12/10 07:11:31;;;;;;;8.50;3.55;;;2.00;99.90;;;;;;5035628;28;20205;-76
2021/12/10 07:14:17;;;;;;;9.57;3.10;;;2.00;99.90;;;;;;5030857;28;20197;-77
2021/12/10 07:17:04;;;;;;;12.88;3.63;;;2.00;99.90;;;;;;5029638;28;20678;-76
2021/12/10 07:19:49;;;;;;;5.88;2.58;;;1.90;99.90;;;;;;5030212;28;20228;-76
2021/12/10 07:22:37;;;;;;;4.38;3.03;;;1.90;99.90;;;;;;5026701;28;20217;-75
2021/12/10 07:25:23;;;;;;;5.20;3.30;;;2.00;99.90;;;;;;5023015;28;20241;-76
2021/12/10 07:28:09;;;;;;;10.95;3.85;;;2.00;99.90;;;;;;5023334;28;20235;-76
2021/12/10 07:30:55;;;;;;;5.32;3.00;;;2.00;99.90;;;;;;5027155;28;20201;-76
2021/12/10 07:33:42;;;;;;;6.95;3.72;;;2.00;99.90;;;;;;5030171;28;20301;-76
2021/12/10 07:36:28;;;;;;;4.32;2.70;;;2.00;99.90;;;;;;5027292;28;20209;-76
2021/12/10 07:39:15;;;;;;;13.27;3.85;;;2.10;99.90;;;;;;5024800;28;20728;-76
2021/12/10 07:42:01;;;;;;;13.80;5.07;;;2.20;99.90;;;;;;5025776;28;20725;-76
2021/12/10 07:44:46;;;;;;;7.85;3.40;;;2.20;99.90;;;;;;5033459;28;20233;-76
2021/12/10 07:47:35;;;;;;;8.95;3.60;;;2.30;99.90;;;;;;5022890;28;20268;-76
2021/12/10 07:50:26;;;;;;;7.72;3.00;;;2.40;99.90;;;;;;5026720;28;20595;-75
2021/12/10 07:53:12;;;;;;;9.02;3.50;;;2.50;99.90;;;;;;5024037;28;20201;-76
2021/12/10 07:56:01;;;;;;;7.35;3.67;;;2.50;99.90;;;;;;5038979;28;20259;-76
2021/12/10 07:58:47;;;;;;;6.88;3.30;;;2.50;99.90;;;;;;5030493;28;20225;-75
2021/12/10 08:01:33;;;;;;;5.00;3.58;;;2.70;99.90;;;;;;5027125;28;20205;-76
2021/12/10 08:04:19;;;;;;;6.97;3.17;;;2.60;99.90;;;;;;5025525;28;20263;-77
2021/12/10 08:07:05;;;;;;;12.90;3.15;;;2.50;99.90;;;;;;5024544;28;20201;-76
2021/12/10 08:09:51;;;;;;;8.02;3.42;;;2.60;99.90;;;;;;5022599;28;20269;-76
2021/12/10 08:12:38;;;;;;;9.20;3.17;;;2.60;99.90;;;;;;5026914;28;20305;-76
2021/12/10 08:15:24;;;;;;;7.10;3.33;;;2.60;99.90;;;;;;5028675;28;20213;-76
2021/12/10 08:18:11;;;;;;;6.75;3.25;;;2.70;99.90;;;;;;5030422;28;20205;-76
2021/12/10 08:20:58;;;;;;;7.28;3.25;;;2.60;99.90;;;;;;5027096;28;20672;-76
2021/12/10 08:23:44;;;;;;;7.35;2.90;;;2.60;99.90;;;;;;5026710;28;20268;-75
2021/12/10 08:26:31;;;;;;;4.03;2.90;;;2.60;99.90;;;;;;5025011;28;20214;-75
2021/12/10 08:29:20;;;;;;;9.18;3.20;;;2.60;99.90;;;;;;5036185;28;20782;-76
2021/12/10 08:32:06;;;;;;;6.80;3.45;;;2.60;99.90;;;;;;5033285;28;20360;-76
2021/12/10 08:34:52;;;;;;;9.18;3.15;;;2.60;99.90;;;;;;5036055;28;20710;-75
2021/12/10 08:37:38;;;;;;;6.90;2.95;;;2.70;99.90;;;;;;5030559;28;20691;-77
2021/12/10 08:40:28;;;;;;;6.28;3.47;;;2.80;99.90;;;;;;5024319;28;20220;-76
2021/12/10 08:43:14;;;;;;;6.15;3.38;;;2.90;99.90;;;;;;5037689;28;20206;-75
2021/12/10 08:46:02;;;;;;;3.33;2.17;;;2.80;99.90;;;;;;5035996;28;20198;-76
2021/12/10 08:48:48;;;;;;;7.47;2.55;;;2.80;99.90;;;;;;5035937;28;20248;-76
2021/12/10 08:51:39;;;;;;;5.38;3.10;;;2.80;99.90;;;;;;5034099;28;20205;-75
2021/12/10 08:54:27;;;;;;;8.98;4.00;;;2.80;99.90;;;;;;5031445;28;20194;-76
2021/12/10 08:57:14;;;;;;;6.13;3.35;;;2.80;99.90;;;;;;5032698;28;20722;-75
2021/12/10 08:59:59;;;;;;;9.38;3.35;;;2.90;99.90;;;;;;5029644;28;20221;-76
2021/12/10 09:02:47;;;;;;;4.30;3.00;;;3.00;99.90;;;;;;5031567;28;20213;-75
2021/12/10 09:05:34;;;;;;;9.18;3.03;;;3.00;99.90;;;;;;5035600;28;20229;-76
2021/12/10 09:08:20;;;;;;;5.50;3.42;;;3.10;99.90;;;;;;5033293;28;20214;-75
2021/12/10 09:11:08;;;;;;;11.50;2.60;;;3.20;99.90;;;;;;5023252;28;20571;-75
2021/12/10 09:13:54;;;;;;;6.18;2.90;;;3.20;99.90;;;;;;5031818;28;20201;-75
2021/12/10 09:16:40;;;;;;;4.28;2.50;;;3.30;99.90;;;;;;5032561;28;20336;-75
2021/12/10 09:19:27;;;;;;;5.68;3.50;;;3.40;99.90;;;;;;5032341;28;20224;-76
2021/12/10 09:22:12;;;;;;;5.78;2.40;;;3.40;99.90;;;;;;5026719;28;20201;-75
2021/12/10 09:24:59;;;;;;;5.85;3.10;;;3.40;99.90;;;;;;5036354;28;20698;-75
2021/12/10 09:27:45;;;;;;;5.55;2.85;;;3.50;99.90;;;;;;5032217;28;20201;-75
2021/12/10 09:30:33;;;;;;;4.10;2.42;;;3.40;99.90;;;;;;5027594;28;20229;-75
2021/12/10 09:33:19;;;;;;;5.13;3.10;;;3.50;99.90;;;;;;5032299;28;20210;-75
2021/12/10 09:36:07;;;;;;;7.10;3.10;;;3.50;99.90;;;;;;5027997;28;20201;-75
2021/12/10 09:38:52;;;;;;;8.45;3.03;;;3.40;99.90;;;;;;5030940;28;20217;-76
2021/12/10 09:41:39;;;;;;;7.97;3.13;;;3.50;99.90;;;;;;5037545;28;20703;-76
2021/12/10 09:44:25;;;;;;;3.30;2.55;;;3.60;99.90;;;;;;5032694;28;20217;-76
2021/12/10 09:47:15;;;;;;;7.18;2.80;;;3.70;99.90;;;;;;5026152;28;20697;-75
2021/12/10 09:50:01;;;;;;;7.15;3.67;;;3.70;99.90;;;;;;5029039;28;20352;-75
2021/12/10 09:52:48;;;;;;;4.57;2.80;;;3.70;99.90;;;;;;5032850;28;20202;-75
2021/12/10 09:55:35;;;;;;;6.60;3.13;;;3.80;99.90;;;;;;5043885;28;20284;-75
2021/12/10 09:58:22;;;;;;;6.47;3.70;;;3.80;99.90;;;;;;5024447;28;20272;-76
2021/12/10 10:01:12;;;;;;;6.45;3.22;;;3.90;99.90;;;;;;5031201;28;20268;-75
2021/12/10 10:04:02;;;;;;;4.57;2.53;;;3.90;99.90;;;;;;5034839;28;20204;-76
2021/12/10 10:06:53;;;;;;;12.15;3.60;;;4.00;99.90;;;;;;5034820;28;20243;-75
2021/12/10 10:09:42;;;;;;;5.85;3.00;;;4.00;99.90;;;;;;5029992;28;20229;-75
2021/12/10 10:12:31;;;;;;;5.28;2.92;;;4.00;99.90;;;;;;5027134;28;20679;-75
2021/12/10 10:15:20;;;;;;;4.88;3.38;;;4.10;99.90;;;;;;5034119;28;20202;-76
2021/12/10 10:18:08;;;;;;;6.78;2.90;;;4.20;99.90;;;;;;5023081;28;20726;-75
2021/12/10 10:20:57;;;;;;;8.30;3.67;;;4.30;99.90;;;;;;5029714;28;20570;-76
2021/12/10 10:23:43;;;;;;;8.70;3.50;;;4.40;99.90;;;;;;5034806;28;20202;-76
2021/12/10 10:26:33;;;;;;;6.13;3.20;;;4.40;99.90;;;;;;5023085;28;20206;-75
2021/12/10 10:29:21;;;;;;;5.95;3.63;;;4.40;99.90;;;;;;5028922;28;20718;-76
2021/12/10 10:32:10;;;;;;;11.70;3.78;;;4.40;99.90;;;;;;5036623;28;20746;-76
2021/12/10 10:35:01;;;;;;;6.63;3.25;;;4.50;99.90;;;;;;5031829;28;20206;-76
2021/12/10 10:37:47;;;;;;;7.07;3.30;;;4.50;99.90;;;;;;5027018;28;20193;-75
2021/12/10 10:40:35;;;;;;;6.18;3.00;;;4.50;99.90;;;;;;5036068;28;20235;-76
2021/12/10 10:43:24;;;;;;;6.60;3.30;;;4.50;99.90;;;;;;5030785;28;20209;-73
2021/12/10 10:46:11;;;;;;;12.32;3.55;;;4.40;99.90;;;;;;5031285;28;20587;-73
2021/12/10 10:48:57;;;;;;;7.85;3.42;;;4.50;99.90;;;;;;5026164;28;20352;-73
2021/12/10 10:51:43;;;;;;;7.75;3.17;;;4.50;99.90;;;;;;5033352;28;20221;-73
2021/12/10 10:54:31;;;;;;;6.00;2.92;;;4.50;99.90;;;;;;5022752;28;20205;-73
2021/12/10 10:57:24;;;;;;;6.47;3.05;;;4.50;99.90;;;;;;5024068;28;20341;-73
2021/12/10 11:00:19;;;;;;;8.75;3.60;;;4.50;99.90;;;;;;5030634;28;20223;-73
2021/12/10 11:03:10;;;;;;;4.88;3.17;;;4.50;99.90;;;;;;5031131;28;20209;-73
2021/12/10 11:05:58;;;;;;;5.00;2.80;;;4.60;99.90;;;;;;5029136;28;20218;-73
2021/12/10 11:08:47;;;;;;;5.50;3.08;;;4.60;99.90;;;;;;5025306;28;20221;-73
2021/12/10 11:11:35;;;;;;;4.70;3.35;;;4.60;99.90;;;;;;5025248;28;20201;-73
2021/12/10 11:14:24;;;;;;;6.22;2.97;;;4.60;99.90;;;;;;5029140;28;20217;-72
2021/12/10 11:17:14;;;;;;;4.57;2.90;;;4.70;99.90;;;;;;5029035;28;20208;-73
2021/12/10 11:20:05;;;;;;;4.35;3.13;;;4.70;99.90;;;;;;5029914;28;20597;-73
2021/12/10 11:22:53;;;;;;;6.32;2.95;;;4.70;99.90;;;;;;5032186;28;20686;-74
2021/12/10 11:25:43;;;;;;;7.13;3.20;;;4.60;99.90;;;;;;5031879;28;20237;-74
2021/12/10 11:28:32;;;;;;;13.55;3.50;;;4.60;99.90;;;;;;5025762;28;20201;-74
2021/12/10 11:31:19;;;;;;;7.38;3.30;;;4.50;99.90;;;;;;5029279;28;20347;-73
2021/12/10 11:34:06;;;;;;;6.07;3.15;;;4.50;99.90;;;;;;5029391;28;20201;-74
2021/12/10 11:36:52;;;;;;;13.18;3.33;;;4.50;99.90;;;;;;5031295;28;20197;-74
2021/12/10 11:39:46;;;;;;;12.35;3.03;;;4.40;99.90;;;;;;5029174;28;20225;-73
2021/12/10 11:42:41;;;;;;;4.53;3.08;;;4.40;99.90;;;;;;5026672;28;20213;-71
2021/12/10 11:45:34;;;;;;;7.57;3.78;;;4.50;99.90;;;;;;5025690;28;20221;-73
2021/12/10 11:48:26;;;;;;;10.90;3.67;;;4.60;99.90;;;;;;5030267;28;20274;-73
2021/12/10 11:51:15;;;;;;;6.80;4.07;;;4.60;99.90;;;;;;5026281;28;20918;-74
2021/12/10 11:54:04;;;;;;;4.90;3.60;;;4.70;99.90;;;;;;5029009;28;20229;-74
2021/12/10 11:56:54;;;;;;;8.20;3.95;;;4.70;99.90;;;;;;5035865;28;20204;-73
2021/12/10 11:59:42;;;;;;;6.47;4.13;;;4.70;99.90;;;;;;5034247;28;20268;-74
2021/12/10 12:02:30;;;;;;;5.43;3.95;;;4.80;99.90;;;;;;5030896;28;20706;-74
2021/12/10 12:05:19;;;;;;;10.00;4.88;;;4.80;99.90;;;;;;5027203;28;20718;-73
2021/12/10 12:08:08;;;;;;;9.50;4.63;;;4.90;99.90;;;;;;5034090;28;20201;-73
2021/12/10 12:10:58;;;;;;;6.60;3.55;;;4.90;99.90;;;;;;5029780;28;20282;-74
2021/12/10 12:13:54;;;;;;;7.78;4.28;;;4.80;99.90;;;;;;5027458;28;20217;-73
2021/12/10 12:16:39;;;;;;;5.97;3.33;;;4.80;99.90;;;;;;5032208;28;20202;-73
2021/12/10 12:19:31;;;;;;;8.27;3.88;;;4.80;99.90;;;;;;5034225;28;20619;-73
2021/12/10 12:25:30;;;;;;;7.75;4.28;;;4.90;99.90;;;;;;5032535;28;20229;-73
2021/12/10 12:28:18;;;;;;;8.07;4.65;;;4.80;99.90;;;;;;5028702;28;20209;-73
2021/12/10 12:31:08;;;;;;;5.30;3.88;;;4.80;99.90;;;;;;5029295;28;20197;-72
2021/12/10 12:34:11;;;;;;;5.53;3.60;;;4.80;99.90;;;;;;5030045;28;20419;-73
2021/12/10 12:37:00;;;;;;;5.80;3.88;;;4.70;99.90;;;;;;5031123;28;20608;-73
2021/12/10 12:39:49;;;;;;;8.68;3.40;;;4.70;99.90;;;;;;5034593;28;20222;-74
2021/12/10 12:42:39;;;;;;;6.68;4.00;;;4.70;99.90;;;;;;5035975;28;20205;-73
2021/12/10 12:45:26;;;;;;;6.55;3.63;;;4.70;99.90;;;;;;5030820;28;20233;-73
2021/12/10 12:48:14;;;;;;;7.03;3.20;;;4.70;99.90;;;;;;5033187;28;20251;-73
2021/12/10 12:51:07;;;;;;;5.32;3.75;;;4.70;99.90;;;;;;5035700;28;20209;-73
2021/12/10 12:53:56;;;;;;;6.47;4.03;;;4.80;99.90;;;;;;5036864;28;20201;-73
2021/12/10 12:56:42;;;;;;;10.10;3.83;;;4.90;99.90;;;;;;5031033;28;20284;-73
2021/12/10 12:59:29;;;;;;;5.15;3.20;;;4.90;99.90;;;;;;5036957;28;20715;-74
2021/12/10 13:02:15;;;;;;;6.05;3.40;;;4.90;99.90;;;;;;5034523;28;20252;-73
2021/12/10 13:05:01;;;;;;;6.40;3.38;;;4.90;99.90;;;;;;5032681;28;20283;-73
2021/12/10 13:07:46;;;;;;;7.68;3.17;;;4.80;99.90;;;;;;5026833;28;20774;-73
2021/12/10 13:10:34;;;;;;;4.00;2.72;;;4.70;99.90;;;;;;5033831;28;20221;-73
2021/12/10 13:13:32;;;;;;;5.18;2.40;;;4.60;99.90;;;;;;5038957;28;20205;-73
2021/12/10 13:16:34;;;;;;;5.88;3.13;;;4.60;99.90;;;;;;5031273;28;20248;-73
2021/12/10 13:19:24;;;;;;;4.50;2.80;;;4.70;99.90;;;;;;5031352;28;20271;-73
2021/12/10 13:22:13;;;;;;;6.25;3.15;;;4.70;99.90;;;;;;5032097;28;20201;-74
2021/12/10 13:25:03;;;;;;;4.32;2.83;;;4.60;99.90;;;;;;5031284;28;20206;-73
2021/12/10 13:27:49;;;;;;;6.97;2.88;;;4.70;99.90;;;;;;5032609;28;20272;-71
2021/12/10 13:30:41;;;;;;;9.77;3.10;;;4.60;99.90;;;;;;5028751;28;20287;-76
2021/12/10 13:33:31;;;;;;;6.07;2.30;;;4.50;99.90;;;;;;5031460;28;20280;-73
2021/12/10 13:36:17;;;;;;;7.10;3.05;;;4.60;99.90;;;;;;5028945;28;20737;-73
2021/12/10 13:39:04;;;;;;;4.70;2.88;;;4.50;99.90;;;;;;5032471;28;20229;-74
2021/12/10 13:41:50;;;;;;;9.25;5.40;;;4.40;99.90;;;;;;5029622;28;20199;-73
2021/12/10 13:44:42;;;;;;;5.38;3.00;;;4.50;99.90;;;;;;5027299;28;20347;-73
2021/12/10 13:47:32;;;;;;;8.90;3.50;;;4.50;99.90;;;;;;5027539;28;20206;-73
2021/12/10 13:50:22;;;;;;;8.63;2.67;;;4.50;99.90;;;;;;5052164;22;20271;-71
2021/12/10 13:53:09;;;;;;;5.70;3.00;;;4.60;99.90;;;;;;5059183;28;20570;-71
2021/12/10 13:55:57;;;;;;;6.40;3.40;;;4.50;99.90;;;;;;5045179;28;20224;-71
2021/12/10 13:58:50;;;;;;;6.90;3.25;;;4.50;99.90;;;;;;5060052;28;20210;-71
2021/12/10 14:01:40;;;;;;;4.75;2.25;;;4.60;99.90;;;;;;5042981;28;20208;-71
2021/12/10 14:04:29;;;;;;;5.93;2.80;;;4.50;99.90;;;;;;5034382;28;20688;-71
2021/12/10 14:07:19;;;;;;;7.95;3.63;;;4.60;99.90;;;;;;5031353;28;20721;-69
2021/12/10 14:10:07;;;;;;;8.20;4.28;;;4.50;99.90;;;;;;5035377;28;20233;-69
2021/12/10 14:12:54;;;;;;;9.20;5.35;;;4.40;99.90;;;;;;5036300;28;20205;-71
2021/12/10 14:15:46;;;;;;;10.10;6.30;;;4.30;99.90;;;;;;5030694;28;20205;-70
2021/12/10 14:18:37;;;;;;;8.85;5.38;;;4.30;99.90;;;;;;5038283;28;20193;-71
2021/12/10 14:21:23;;;;;;;9.25;4.75;;;4.30;99.90;;;;;;5028092;28;20221;-71
2021/12/10 14:24:11;;;;;;;4.53;3.55;;;4.40;99.90;;;;;;5025882;28;20710;-68
2021/12/10 14:27:09;;;;;;;7.63;4.22;;;4.40;99.90;;;;;;5034083;28;20319;-69
2021/12/10 14:30:15;;;;;;;6.43;4.38;;;4.40;99.90;;;;;;5035056;28;20237;-69
2021/12/10 14:33:08;;;;;;;7.40;4.15;;;4.40;99.90;;;;;;5039881;28;20193;-68
2021/12/10 14:36:03;;;;;;;6.30;3.83;;;4.40;99.90;;;;;;5032719;28;20220;-69
2021/12/10 14:38:52;;;;;;;6.30;4.60;;;4.30;99.90;;;;;;5032876;28;20259;-69
2021/12/10 14:41:43;;;;;;;7.35;5.25;;;4.40;99.90;;;;;;5034516;28;20409;-69
2021/12/10 14:44:32;;;;;;;5.70;4.10;;;4.40;99.90;;;;;;5029860;28;20206;-69
2021/12/10 14:47:20;;;;;;;7.38;4.30;;;4.30;99.90;;;;;;5031308;28;20229;-70
2021/12/10 14:50:08;;;;;;;5.55;3.75;;;4.30;99.90;;;;;;5034606;28;20249;-69
2021/12/10 14:52:54;;;;;;;6.22;3.92;;;4.30;99.90;;;;;;5035003;28;20201;-68
2021/12/10 14:55:40;;;;;;;6.90;3.67;;;4.20;99.90;;;;;;5036567;28;20667;-70